sensor_id;sensor_type;location;lat;lon;timestamp;P1;durP1;ratioP1;P2;durP2;ratioP2
20026;SDS011;10174;42.688;23.344;2023-03-31T00:00:27;25.10;;;8.35;;
20026;SDS011;10174;42.688;23.344;2023-03-31T00:02:52;18.13;;;8.35;;
20026;SDS011;10174;42.688;23.344;2023-03-31T00:05:20;24.52;;;8.75;;
20026;SDS011;10174;42.688;23.344;2023-03-31T00:07:51;17.98;;;8.13;;
20026;SDS011;10174;42.688;23.344;2023-03-31T00:10:27;20.45;;;7.90;;
20026;SDS011;10174;42.688;23.344;2023-03-31T00:12:57;17.83;;;7.40;;
20026;SDS011;10174;42.688;23.344;2023-03-31T00:15:24;32.80;;;8.07;;
20026;SDS011;10174;42.688;23.344;2023-03-31T00:17:50;19.75;;;7.82;;
20026;SDS011;10174;42.688;23.344;2023-03-31T00:20:15;18.38;;;7.55;;
20026;SDS011;10174;42.688;23.344;2023-03-31T00:22:41;28.27;;;7.95;;
20026;SDS011;10174;42.688;23.344;2023-03-31T00:25:11;26.02;;;7.95;;
20026;SDS011;10174;42.688;23.344;2023-03-31T00:27:37;18.73;;;7.53;;
20026;SDS011;10174;42.688;23.344;2023-03-31T00:30:06;24.00;;;8.15;;
20026;SDS011;10174;42.688;23.344;2023-03-31T00:32:32;21.67;;;7.20;;
20026;SDS011;10174;42.688;23.344;2023-03-31T00:34:57;20.42;;;7.60;;
20026;SDS011;10174;42.688;23.344;2023-03-31T00:37:22;24.05;;;8.25;;
20026;SDS011;10174;42.688;23.344;2023-03-31T00:39:48;21.80;;;7.35;;
20026;SDS011;10174;42.688;23.344;2023-03-31T00:42:14;20.23;;;8.07;;
20026;SDS011;10174;42.688;23.344;2023-03-31T00:47:42;21.13;;;7.60;;
20026;SDS011;10174;42.688;23.344;2023-03-31T00:53:11;19.38;;;8.15;;
20026;SDS011;10174;42.688;23.344;2023-03-31T00:55:48;15.10;;;7.55;;
20026;SDS011;10174;42.688;23.344;2023-03-31T00:58:16;15.98;;;7.22;;
20026;SDS011;10174;42.688;23.344;2023-03-31T01:00:45;20.33;;;6.93;;
20026;SDS011;10174;42.688;23.344;2023-03-31T01:03:17;17.88;;;7.10;;
20026;SDS011;10174;42.688;23.344;2023-03-31T01:05:47;28.02;;;7.75;;
20026;SDS011;10174;42.688;23.344;2023-03-31T01:08:17;25.80;;;8.43;;
20026;SDS011;10174;42.688;23.344;2023-03-31T01:10:49;21.25;;;9.27;;
20026;SDS011;10174;42.688;23.344;2023-03-31T01:13:17;21.40;;;8.40;;
20026;SDS011;10174;42.688;23.344;2023-03-31T01:15:44;20.80;;;7.82;;
20026;SDS011;10174;42.688;23.344;2023-03-31T01:18:10;25.85;;;8.23;;
20026;SDS011;10174;42.688;23.344;2023-03-31T01:26:27;21.52;;;8.75;;
20026;SDS011;10174;42.688;23.344;2023-03-31T01:32:23;23.33;;;9.40;;
20026;SDS011;10174;42.688;23.344;2023-03-31T01:43:17;37.03;;;10.27;;
20026;SDS011;10174;42.688;23.344;2023-03-31T01:46:07;34.45;;;10.93;;
20026;SDS011;10174;42.688;23.344;2023-03-31T01:48:53;35.90;;;9.43;;
20026;SDS011;10174;42.688;23.344;2023-03-31T01:52:05;23.05;;;10.07;;
20026;SDS011;10174;42.688;23.344;2023-03-31T02:00:04;28.52;;;10.10;;
20026;SDS011;10174;42.688;23.344;2023-03-31T02:02:37;28.75;;;10.95;;
20026;SDS011;10174;42.688;23.344;2023-03-31T02:05:08;28.65;;;10.70;;
20026;SDS011;10174;42.688;23.344;2023-03-31T02:07:38;27.35;;;10.82;;
20026;SDS011;10174;42.688;23.344;2023-03-31T02:10:07;30.98;;;10.68;;
20026;SDS011;10174;42.688;23.344;2023-03-31T02:12:35;37.17;;;11.77;;
20026;SDS011;10174;42.688;23.344;2023-03-31T02:15:05;30.80;;;10.20;;
20026;SDS011;10174;42.688;23.344;2023-03-31T02:17:34;31.17;;;10.85;;
20026;SDS011;10174;42.688;23.344;2023-03-31T02:20:05;36.17;;;11.75;;
20026;SDS011;10174;42.688;23.344;2023-03-31T02:22:36;39.60;;;11.57;;
20026;SDS011;10174;42.688;23.344;2023-03-31T02:25:03;25.90;;;11.27;;
20026;SDS011;10174;42.688;23.344;2023-03-31T02:27:39;30.85;;;11.55;;
20026;SDS011;10174;42.688;23.344;2023-03-31T02:30:07;36.53;;;11.73;;
20026;SDS011;10174;42.688;23.344;2023-03-31T02:32:37;38.63;;;11.80;;
20026;SDS011;10174;42.688;23.344;2023-03-31T02:35:05;30.73;;;11.45;;
20026;SDS011;10174;42.688;23.344;2023-03-31T02:37:34;30.20;;;11.27;;
20026;SDS011;10174;42.688;23.344;2023-03-31T02:40:00;31.40;;;11.70;;
20026;SDS011;10174;42.688;23.344;2023-03-31T02:42:35;31.73;;;13.25;;
20026;SDS011;10174;42.688;23.344;2023-03-31T02:45:06;35.35;;;13.02;;
20026;SDS011;10174;42.688;23.344;2023-03-31T02:47:51;33.22;;;14.25;;
20026;SDS011;10174;42.688;23.344;2023-03-31T02:50:17;37.97;;;15.82;;
20026;SDS011;10174;42.688;23.344;2023-03-31T02:52:56;49.40;;;15.30;;
20026;SDS011;10174;42.688;23.344;2023-03-31T03:07:55;35.53;;;15.32;;
20026;SDS011;10174;42.688;23.344;2023-03-31T03:10:37;38.60;;;15.82;;
20026;SDS011;10174;42.688;23.344;2023-03-31T03:16:14;42.35;;;17.33;;
20026;SDS011;10174;42.688;23.344;2023-03-31T03:18:58;46.70;;;17.38;;
20026;SDS011;10174;42.688;23.344;2023-03-31T03:21:26;34.47;;;16.20;;
20026;SDS011;10174;42.688;23.344;2023-03-31T03:23:52;45.78;;;18.27;;
20026;SDS011;10174;42.688;23.344;2023-03-31T03:26:19;50.83;;;18.17;;
20026;SDS011;10174;42.688;23.344;2023-03-31T03:28:46;43.85;;;17.73;;
20026;SDS011;10174;42.688;23.344;2023-03-31T03:31:12;55.05;;;19.52;;
20026;SDS011;10174;42.688;23.344;2023-03-31T03:33:37;45.22;;;19.05;;
20026;SDS011;10174;42.688;23.344;2023-03-31T03:36:03;50.75;;;18.65;;
20026;SDS011;10174;42.688;23.344;2023-03-31T03:38:29;46.63;;;18.17;;
20026;SDS011;10174;42.688;23.344;2023-03-31T03:40:54;48.00;;;17.42;;
20026;SDS011;10174;42.688;23.344;2023-03-31T03:43:20;46.47;;;17.65;;
20026;SDS011;10174;42.688;23.344;2023-03-31T03:45:49;51.38;;;18.20;;
20026;SDS011;10174;42.688;23.344;2023-03-31T03:48:15;46.63;;;17.30;;
20026;SDS011;10174;42.688;23.344;2023-03-31T03:50:40;41.08;;;18.23;;
20026;SDS011;10174;42.688;23.344;2023-03-31T03:53:06;37.78;;;16.98;;
20026;SDS011;10174;42.688;23.344;2023-03-31T03:55:32;45.33;;;17.67;;
20026;SDS011;10174;42.688;23.344;2023-03-31T03:57:58;42.20;;;15.15;;
20026;SDS011;10174;42.688;23.344;2023-03-31T04:00:23;54.63;;;19.05;;
20026;SDS011;10174;42.688;23.344;2023-03-31T04:02:49;39.30;;;15.07;;
20026;SDS011;10174;42.688;23.344;2023-03-31T04:05:14;41.72;;;14.70;;
20026;SDS011;10174;42.688;23.344;2023-03-31T04:07:40;41.75;;;13.82;;
20026;SDS011;10174;42.688;23.344;2023-03-31T04:10:05;33.63;;;12.93;;
20026;SDS011;10174;42.688;23.344;2023-03-31T04:12:33;32.30;;;15.00;;
20026;SDS011;10174;42.688;23.344;2023-03-31T04:14:59;32.10;;;11.80;;
20026;SDS011;10174;42.688;23.344;2023-03-31T04:17:24;32.45;;;14.13;;
20026;SDS011;10174;42.688;23.344;2023-03-31T04:20:00;44.00;;;14.68;;
20026;SDS011;10174;42.688;23.344;2023-03-31T04:22:28;31.73;;;13.02;;
20026;SDS011;10174;42.688;23.344;2023-03-31T04:24:58;36.25;;;12.75;;
20026;SDS011;10174;42.688;23.344;2023-03-31T04:27:24;28.67;;;12.18;;
20026;SDS011;10174;42.688;23.344;2023-03-31T04:29:51;25.88;;;11.82;;
20026;SDS011;10174;42.688;23.344;2023-03-31T04:32:20;23.75;;;12.05;;
20026;SDS011;10174;42.688;23.344;2023-03-31T04:34:46;31.83;;;11.77;;
20026;SDS011;10174;42.688;23.344;2023-03-31T04:37:14;24.80;;;10.73;;
20026;SDS011;10174;42.688;23.344;2023-03-31T04:39:40;32.45;;;11.55;;
20026;SDS011;10174;42.688;23.344;2023-03-31T04:42:05;20.52;;;9.35;;
20026;SDS011;10174;42.688;23.344;2023-03-31T04:44:30;21.02;;;8.68;;
20026;SDS011;10174;42.688;23.344;2023-03-31T04:46:56;23.73;;;11.50;;
20026;SDS011;10174;42.688;23.344;2023-03-31T04:49:23;23.48;;;10.98;;
20026;SDS011;10174;42.688;23.344;2023-03-31T04:51:48;28.50;;;10.98;;
20026;SDS011;10174;42.688;23.344;2023-03-31T04:54:14;25.75;;;9.68;;
20026;SDS011;10174;42.688;23.344;2023-03-31T04:56:40;28.48;;;10.77;;
20026;SDS011;10174;42.688;23.344;2023-03-31T04:59:06;33.83;;;12.00;;
20026;SDS011;10174;42.688;23.344;2023-03-31T05:01:32;23.35;;;10.90;;
20026;SDS011;10174;42.688;23.344;2023-03-31T05:04:00;31.77;;;12.77;;
20026;SDS011;10174;42.688;23.344;2023-03-31T05:06:26;29.55;;;14.00;;
20026;SDS011;10174;42.688;23.344;2023-03-31T05:08:52;24.45;;;10.50;;
20026;SDS011;10174;42.688;23.344;2023-03-31T05:11:17;22.15;;;11.20;;
20026;SDS011;10174;42.688;23.344;2023-03-31T05:13:42;27.10;;;10.93;;
20026;SDS011;10174;42.688;23.344;2023-03-31T05:16:09;24.05;;;10.95;;
20026;SDS011;10174;42.688;23.344;2023-03-31T05:18:38;28.48;;;11.13;;
20026;SDS011;10174;42.688;23.344;2023-03-31T05:21:11;30.00;;;11.20;;
20026;SDS011;10174;42.688;23.344;2023-03-31T05:23:38;17.27;;;10.38;;
20026;SDS011;10174;42.688;23.344;2023-03-31T05:26:04;21.10;;;11.35;;
20026;SDS011;10174;42.688;23.344;2023-03-31T05:28:30;24.00;;;11.32;;
20026;SDS011;10174;42.688;23.344;2023-03-31T05:30:57;22.95;;;12.18;;
20026;SDS011;10174;42.688;23.344;2023-03-31T05:33:25;26.00;;;12.48;;
20026;SDS011;10174;42.688;23.344;2023-03-31T05:35:51;32.08;;;15.45;;
20026;SDS011;10174;42.688;23.344;2023-03-31T05:38:16;26.15;;;12.30;;
20026;SDS011;10174;42.688;23.344;2023-03-31T05:40:42;34.80;;;13.82;;
20026;SDS011;10174;42.688;23.344;2023-03-31T05:43:07;26.75;;;11.77;;
20026;SDS011;10174;42.688;23.344;2023-03-31T05:45:33;26.95;;;11.80;;
20026;SDS011;10174;42.688;23.344;2023-03-31T05:47:58;32.22;;;11.32;;
20026;SDS011;10174;42.688;23.344;2023-03-31T05:50:24;28.10;;;10.32;;
20026;SDS011;10174;42.688;23.344;2023-03-31T05:52:49;38.80;;;17.33;;
20026;SDS011;10174;42.688;23.344;2023-03-31T05:55:15;31.65;;;13.40;;
20026;SDS011;10174;42.688;23.344;2023-03-31T05:57:40;28.23;;;11.70;;
20026;SDS011;10174;42.688;23.344;2023-03-31T06:00:06;30.95;;;12.32;;
20026;SDS011;10174;42.688;23.344;2023-03-31T06:02:34;32.25;;;12.38;;
20026;SDS011;10174;42.688;23.344;2023-03-31T06:04:59;27.48;;;11.95;;
20026;SDS011;10174;42.688;23.344;2023-03-31T06:07:25;24.35;;;11.07;;
20026;SDS011;10174;42.688;23.344;2023-03-31T06:09:50;25.10;;;11.82;;
20026;SDS011;10174;42.688;23.344;2023-03-31T06:12:16;25.10;;;11.10;;
20026;SDS011;10174;42.688;23.344;2023-03-31T06:14:41;21.60;;;10.32;;
20026;SDS011;10174;42.688;23.344;2023-03-31T06:17:07;26.88;;;10.63;;
20026;SDS011;10174;42.688;23.344;2023-03-31T06:19:32;29.55;;;11.75;;
20026;SDS011;10174;42.688;23.344;2023-03-31T06:21:57;33.13;;;10.80;;
20026;SDS011;10174;42.688;23.344;2023-03-31T06:24:23;29.63;;;13.70;;
20026;SDS011;10174;42.688;23.344;2023-03-31T06:26:48;31.70;;;13.85;;
20026;SDS011;10174;42.688;23.344;2023-03-31T06:29:14;34.55;;;14.20;;
20026;SDS011;10174;42.688;23.344;2023-03-31T06:31:39;28.65;;;13.25;;
20026;SDS011;10174;42.688;23.344;2023-03-31T06:34:04;26.83;;;10.25;;
20026;SDS011;10174;42.688;23.344;2023-03-31T06:36:30;23.48;;;9.90;;
20026;SDS011;10174;42.688;23.344;2023-03-31T06:38:56;26.08;;;10.95;;
20026;SDS011;10174;42.688;23.344;2023-03-31T06:41:21;29.63;;;9.88;;
20026;SDS011;10174;42.688;23.344;2023-03-31T06:43:47;30.38;;;10.40;;
20026;SDS011;10174;42.688;23.344;2023-03-31T06:46:12;24.92;;;9.75;;
20026;SDS011;10174;42.688;23.344;2023-03-31T06:48:38;32.72;;;9.20;;
20026;SDS011;10174;42.688;23.344;2023-03-31T06:51:04;35.17;;;9.13;;
20026;SDS011;10174;42.688;23.344;2023-03-31T06:53:31;31.35;;;9.35;;
20026;SDS011;10174;42.688;23.344;2023-03-31T06:55:56;31.77;;;8.93;;
20026;SDS011;10174;42.688;23.344;2023-03-31T06:58:22;27.40;;;10.38;;
20026;SDS011;10174;42.688;23.344;2023-03-31T07:00:48;38.30;;;10.82;;
20026;SDS011;10174;42.688;23.344;2023-03-31T07:03:14;30.95;;;10.00;;
20026;SDS011;10174;42.688;23.344;2023-03-31T07:05:52;26.98;;;11.07;;
20026;SDS011;10174;42.688;23.344;2023-03-31T07:08:18;30.52;;;10.27;;
20026;SDS011;10174;42.688;23.344;2023-03-31T07:10:44;21.17;;;8.98;;
20026;SDS011;10174;42.688;23.344;2023-03-31T07:13:16;28.20;;;9.32;;
20026;SDS011;10174;42.688;23.344;2023-03-31T07:15:42;24.38;;;9.05;;
20026;SDS011;10174;42.688;23.344;2023-03-31T07:18:10;34.75;;;9.82;;
20026;SDS011;10174;42.688;23.344;2023-03-31T07:20:36;34.33;;;9.18;;
20026;SDS011;10174;42.688;23.344;2023-03-31T07:23:03;24.85;;;9.65;;
20026;SDS011;10174;42.688;23.344;2023-03-31T07:25:29;20.30;;;6.55;;
20026;SDS011;10174;42.688;23.344;2023-03-31T07:27:55;12.88;;;4.10;;
20026;SDS011;10174;42.688;23.344;2023-03-31T07:30:21;14.15;;;4.38;;
20026;SDS011;10174;42.688;23.344;2023-03-31T07:32:47;17.35;;;5.70;;
20026;SDS011;10174;42.688;23.344;2023-03-31T07:35:14;15.32;;;5.70;;
20026;SDS011;10174;42.688;23.344;2023-03-31T07:37:41;15.35;;;5.68;;
20026;SDS011;10174;42.688;23.344;2023-03-31T07:40:09;16.85;;;6.13;;
20026;SDS011;10174;42.688;23.344;2023-03-31T07:42:39;14.15;;;5.90;;
20026;SDS011;10174;42.688;23.344;2023-03-31T07:45:05;23.55;;;7.35;;
20026;SDS011;10174;42.688;23.344;2023-03-31T07:47:32;10.77;;;5.72;;
20026;SDS011;10174;42.688;23.344;2023-03-31T07:49:57;12.82;;;5.97;;
20026;SDS011;10174;42.688;23.344;2023-03-31T07:54:48;12.23;;;6.80;;
20026;SDS011;10174;42.688;23.344;2023-03-31T07:57:14;11.70;;;5.22;;
20026;SDS011;10174;42.688;23.344;2023-03-31T07:59:41;10.15;;;4.88;;
20026;SDS011;10174;42.688;23.344;2023-03-31T08:02:10;17.00;;;5.53;;
20026;SDS011;10174;42.688;23.344;2023-03-31T08:04:37;9.27;;;4.40;;
20026;SDS011;10174;42.688;23.344;2023-03-31T08:07:03;15.85;;;5.22;;
20026;SDS011;10174;42.688;23.344;2023-03-31T08:09:28;17.17;;;4.30;;
20026;SDS011;10174;42.688;23.344;2023-03-31T08:11:54;16.02;;;5.38;;
20026;SDS011;10174;42.688;23.344;2023-03-31T08:14:19;12.00;;;4.57;;
20026;SDS011;10174;42.688;23.344;2023-03-31T08:16:45;10.13;;;3.80;;
20026;SDS011;10174;42.688;23.344;2023-03-31T08:19:10;12.70;;;4.35;;
20026;SDS011;10174;42.688;23.344;2023-03-31T08:21:36;14.13;;;4.32;;
20026;SDS011;10174;42.688;23.344;2023-03-31T08:24:01;15.77;;;4.25;;
20026;SDS011;10174;42.688;23.344;2023-03-31T08:26:26;14.27;;;4.18;;
20026;SDS011;10174;42.688;23.344;2023-03-31T08:28:52;15.07;;;3.97;;
20026;SDS011;10174;42.688;23.344;2023-03-31T08:31:18;12.93;;;3.53;;
20026;SDS011;10174;42.688;23.344;2023-03-31T08:33:48;10.77;;;3.35;;
20026;SDS011;10174;42.688;23.344;2023-03-31T08:36:13;9.63;;;3.30;;
20026;SDS011;10174;42.688;23.344;2023-03-31T08:38:39;12.57;;;3.75;;
20026;SDS011;10174;42.688;23.344;2023-03-31T08:41:07;16.90;;;3.65;;
20026;SDS011;10174;42.688;23.344;2023-03-31T08:43:45;9.88;;;3.30;;
20026;SDS011;10174;42.688;23.344;2023-03-31T08:46:13;12.10;;;3.03;;
20026;SDS011;10174;42.688;23.344;2023-03-31T08:48:43;17.15;;;3.58;;
20026;SDS011;10174;42.688;23.344;2023-03-31T08:51:16;14.57;;;3.90;;
20026;SDS011;10174;42.688;23.344;2023-03-31T08:54:08;17.60;;;4.38;;
20026;SDS011;10174;42.688;23.344;2023-03-31T08:56:40;13.35;;;3.55;;
20026;SDS011;10174;42.688;23.344;2023-03-31T08:59:30;12.02;;;3.65;;
20026;SDS011;10174;42.688;23.344;2023-03-31T09:01:58;7.78;;;3.10;;
20026;SDS011;10174;42.688;23.344;2023-03-31T09:11:57;16.42;;;3.80;;
20026;SDS011;10174;42.688;23.344;2023-03-31T09:17:06;12.57;;;3.08;;
20026;SDS011;10174;42.688;23.344;2023-03-31T09:22:33;14.25;;;3.05;;
20026;SDS011;10174;42.688;23.344;2023-03-31T09:25:15;16.85;;;3.30;;
20026;SDS011;10174;42.688;23.344;2023-03-31T09:27:45;8.65;;;3.22;;
20026;SDS011;10174;42.688;23.344;2023-03-31T09:30:13;9.70;;;2.90;;
20026;SDS011;10174;42.688;23.344;2023-03-31T09:32:44;10.88;;;2.25;;
20026;SDS011;10174;42.688;23.344;2023-03-31T09:37:46;12.63;;;3.53;;
20026;SDS011;10174;42.688;23.344;2023-03-31T09:40:20;17.52;;;3.30;;
20026;SDS011;10174;42.688;23.344;2023-03-31T09:43:03;14.50;;;3.00;;
20026;SDS011;10174;42.688;23.344;2023-03-31T09:45:31;9.93;;;3.22;;
20026;SDS011;10174;42.688;23.344;2023-03-31T09:47:59;11.63;;;2.85;;
20026;SDS011;10174;42.688;23.344;2023-03-31T09:50:27;8.95;;;2.78;;
20026;SDS011;10174;42.688;23.344;2023-03-31T09:52:55;13.07;;;2.65;;
20026;SDS011;10174;42.688;23.344;2023-03-31T09:55:24;10.13;;;2.60;;
20026;SDS011;10174;42.688;23.344;2023-03-31T09:57:58;10.25;;;2.70;;
20026;SDS011;10174;42.688;23.344;2023-03-31T10:00:25;9.70;;;2.80;;
20026;SDS011;10174;42.688;23.344;2023-03-31T10:02:55;14.77;;;2.88;;
20026;SDS011;10174;42.688;23.344;2023-03-31T10:13:21;10.82;;;3.50;;
20026;SDS011;10174;42.688;23.344;2023-03-31T10:15:53;8.60;;;2.90;;
20026;SDS011;10174;42.688;23.344;2023-03-31T10:18:31;9.93;;;2.50;;
20026;SDS011;10174;42.688;23.344;2023-03-31T10:21:02;8.80;;;2.67;;
20026;SDS011;10174;42.688;23.344;2023-03-31T10:23:30;9.20;;;2.72;;
20026;SDS011;10174;42.688;23.344;2023-03-31T10:25:57;14.10;;;2.80;;
20026;SDS011;10174;42.688;23.344;2023-03-31T10:28:24;8.43;;;2.60;;
20026;SDS011;10174;42.688;23.344;2023-03-31T10:30:51;11.00;;;2.63;;
20026;SDS011;10174;42.688;23.344;2023-03-31T10:33:22;9.63;;;2.30;;
20026;SDS011;10174;42.688;23.344;2023-03-31T10:35:49;9.52;;;3.00;;
20026;SDS011;10174;42.688;23.344;2023-03-31T10:41:04;6.85;;;2.80;;
20026;SDS011;10174;42.688;23.344;2023-03-31T10:46:02;9.68;;;2.70;;
20026;SDS011;10174;42.688;23.344;2023-03-31T10:48:35;9.50;;;2.88;;
20026;SDS011;10174;42.688;23.344;2023-03-31T10:51:04;11.32;;;3.53;;
20026;SDS011;10174;42.688;23.344;2023-03-31T10:53:40;12.00;;;2.75;;
20026;SDS011;10174;42.688;23.344;2023-03-31T11:01:57;15.20;;;3.03;;
20026;SDS011;10174;42.688;23.344;2023-03-31T11:07:52;15.88;;;3.10;;
20026;SDS011;10174;42.688;23.344;2023-03-31T11:18:34;12.48;;;2.80;;
20026;SDS011;10174;42.688;23.344;2023-03-31T11:42:52;12.27;;;2.70;;
20026;SDS011;10174;42.688;23.344;2023-03-31T11:48:04;13.15;;;2.78;;
20026;SDS011;10174;42.688;23.344;2023-03-31T11:50:35;9.75;;;2.72;;
20026;SDS011;10174;42.688;23.344;2023-03-31T11:53:11;10.45;;;2.90;;
20026;SDS011;10174;42.688;23.344;2023-03-31T11:55:39;15.60;;;3.10;;
20026;SDS011;10174;42.688;23.344;2023-03-31T11:58:08;11.80;;;2.53;;
20026;SDS011;10174;42.688;23.344;2023-03-31T12:00:59;10.30;;;3.15;;
20026;SDS011;10174;42.688;23.344;2023-03-31T12:03:36;6.45;;;2.42;;
20026;SDS011;10174;42.688;23.344;2023-03-31T12:06:03;17.48;;;3.28;;
20026;SDS011;10174;42.688;23.344;2023-03-31T12:08:45;6.75;;;2.65;;
20026;SDS011;10174;42.688;23.344;2023-03-31T12:11:16;8.48;;;3.03;;
20026;SDS011;10174;42.688;23.344;2023-03-31T12:16:21;8.98;;;2.65;;
20026;SDS011;10174;42.688;23.344;2023-03-31T12:21:31;13.13;;;2.95;;
20026;SDS011;10174;42.688;23.344;2023-03-31T12:23:59;6.63;;;2.75;;
20026;SDS011;10174;42.688;23.344;2023-03-31T12:29:33;9.00;;;2.50;;
20026;SDS011;10174;42.688;23.344;2023-03-31T12:32:13;9.25;;;2.63;;
20026;SDS011;10174;42.688;23.344;2023-03-31T12:37:52;9.50;;;2.50;;
20026;SDS011;10174;42.688;23.344;2023-03-31T12:40:36;13.55;;;2.28;;
20026;SDS011;10174;42.688;23.344;2023-03-31T12:43:12;13.27;;;2.85;;
20026;SDS011;10174;42.688;23.344;2023-03-31T12:49:07;15.27;;;3.10;;
20026;SDS011;10174;42.688;23.344;2023-03-31T12:52:06;13.02;;;2.78;;
20026;SDS011;10174;42.688;23.344;2023-03-31T12:57:30;6.45;;;2.05;;
20026;SDS011;10174;42.688;23.344;2023-03-31T13:00:42;7.30;;;2.60;;
20026;SDS011;10174;42.688;23.344;2023-03-31T13:06:00;11.25;;;2.70;;
20026;SDS011;10174;42.688;23.344;2023-03-31T13:11:38;15.00;;;2.47;;
20026;SDS011;10174;42.688;23.344;2023-03-31T13:16:45;10.05;;;2.40;;
20026;SDS011;10174;42.688;23.344;2023-03-31T13:19:32;6.88;;;2.80;;
20026;SDS011;10174;42.688;23.344;2023-03-31T13:22:00;9.68;;;2.50;;
20026;SDS011;10174;42.688;23.344;2023-03-31T13:24:27;7.00;;;2.40;;
20026;SDS011;10174;42.688;23.344;2023-03-31T13:26:55;8.38;;;2.90;;
20026;SDS011;10174;42.688;23.344;2023-03-31T13:29:39;15.77;;;3.83;;
20026;SDS011;10174;42.688;23.344;2023-03-31T13:32:20;7.03;;;2.30;;
20026;SDS011;10174;42.688;23.344;2023-03-31T13:35:04;12.20;;;2.72;;
20026;SDS011;10174;42.688;23.344;2023-03-31T13:41:00;14.20;;;5.13;;
20026;SDS011;10174;42.688;23.344;2023-03-31T13:49:20;9.10;;;3.13;;
20026;SDS011;10174;42.688;23.344;2023-03-31T13:52:01;8.02;;;2.20;;
20026;SDS011;10174;42.688;23.344;2023-03-31T14:00:20;14.82;;;2.97;;
20026;SDS011;10174;42.688;23.344;2023-03-31T14:03:04;11.07;;;2.60;;
20026;SDS011;10174;42.688;23.344;2023-03-31T14:08:28;10.80;;;2.40;;
20026;SDS011;10174;42.688;23.344;2023-03-31T14:11:20;10.55;;;2.80;;
20026;SDS011;10174;42.688;23.344;2023-03-31T14:14:10;9.82;;;2.72;;
20026;SDS011;10174;42.688;23.344;2023-03-31T14:17:01;12.00;;;2.75;;
20026;SDS011;10174;42.688;23.344;2023-03-31T14:22:33;14.80;;;2.53;;
20026;SDS011;10174;42.688;23.344;2023-03-31T14:28:18;11.63;;;3.25;;
20026;SDS011;10174;42.688;23.344;2023-03-31T14:39:21;11.25;;;4.63;;
20026;SDS011;10174;42.688;23.344;2023-03-31T14:41:53;12.73;;;2.70;;
20026;SDS011;10174;42.688;23.344;2023-03-31T14:44:22;13.23;;;3.10;;
20026;SDS011;10174;42.688;23.344;2023-03-31T14:46:50;14.18;;;2.90;;
20026;SDS011;10174;42.688;23.344;2023-03-31T14:49:20;11.52;;;3.03;;
20026;SDS011;10174;42.688;23.344;2023-03-31T14:51:50;13.45;;;2.60;;
20026;SDS011;10174;42.688;23.344;2023-03-31T14:54:17;10.68;;;2.40;;
20026;SDS011;10174;42.688;23.344;2023-03-31T14:56:48;19.45;;;2.83;;
20026;SDS011;10174;42.688;23.344;2023-03-31T14:59:26;15.30;;;2.92;;
20026;SDS011;10174;42.688;23.344;2023-03-31T15:01:58;14.10;;;2.58;;
20026;SDS011;10174;42.688;23.344;2023-03-31T15:04:27;16.30;;;3.47;;
20026;SDS011;10174;42.688;23.344;2023-03-31T15:06:54;13.20;;;2.90;;
20026;SDS011;10174;42.688;23.344;2023-03-31T15:09:28;9.68;;;2.38;;
20026;SDS011;10174;42.688;23.344;2023-03-31T15:11:58;14.05;;;3.13;;
20026;SDS011;10174;42.688;23.344;2023-03-31T15:14:32;10.20;;;2.67;;
20026;SDS011;10174;42.688;23.344;2023-03-31T15:17:01;10.93;;;2.95;;
20026;SDS011;10174;42.688;23.344;2023-03-31T15:19:30;6.85;;;2.50;;
20026;SDS011;10174;42.688;23.344;2023-03-31T15:22:01;7.47;;;2.97;;
20026;SDS011;10174;42.688;23.344;2023-03-31T15:24:34;12.75;;;3.20;;
20026;SDS011;10174;42.688;23.344;2023-03-31T15:32:35;16.95;;;2.95;;
20026;SDS011;10174;42.688;23.344;2023-03-31T15:35:01;10.60;;;2.95;;
20026;SDS011;10174;42.688;23.344;2023-03-31T15:37:30;17.35;;;3.85;;
20026;SDS011;10174;42.688;23.344;2023-03-31T15:40:08;24.93;;;7.10;;
20026;SDS011;10174;42.688;23.344;2023-03-31T15:42:43;11.00;;;3.58;;
20026;SDS011;10174;42.688;23.344;2023-03-31T15:47:48;11.60;;;3.40;;
20026;SDS011;10174;42.688;23.344;2023-03-31T15:50:15;13.88;;;3.50;;
20026;SDS011;10174;42.688;23.344;2023-03-31T15:52:46;9.40;;;2.90;;
20026;SDS011;10174;42.688;23.344;2023-03-31T15:58:04;27.50;;;8.55;;
20026;SDS011;10174;42.688;23.344;2023-03-31T16:02:55;12.07;;;3.90;;
20026;SDS011;10174;42.688;23.344;2023-03-31T16:06:08;11.88;;;3.20;;
20026;SDS011;10174;42.688;23.344;2023-03-31T16:09:00;6.47;;;3.17;;
20026;SDS011;10174;42.688;23.344;2023-03-31T16:13:44;16.98;;;3.38;;
20026;SDS011;10174;42.688;23.344;2023-03-31T16:16:15;11.32;;;3.38;;
20026;SDS011;10174;42.688;23.344;2023-03-31T16:18:45;12.18;;;3.05;;
20026;SDS011;10174;42.688;23.344;2023-03-31T16:21:18;9.90;;;4.05;;
20026;SDS011;10174;42.688;23.344;2023-03-31T16:23:49;11.18;;;3.72;;
20026;SDS011;10174;42.688;23.344;2023-03-31T16:26:21;14.23;;;4.15;;
20026;SDS011;10174;42.688;23.344;2023-03-31T16:28:49;24.25;;;6.72;;
20026;SDS011;10174;42.688;23.344;2023-03-31T16:31:30;15.68;;;3.97;;
20026;SDS011;10174;42.688;23.344;2023-03-31T16:33:58;17.92;;;5.18;;
20026;SDS011;10174;42.688;23.344;2023-03-31T16:36:24;19.70;;;4.22;;
20026;SDS011;10174;42.688;23.344;2023-03-31T16:38:53;17.38;;;5.63;;
20026;SDS011;10174;42.688;23.344;2023-03-31T16:41:19;45.08;;;6.95;;
20026;SDS011;10174;42.688;23.344;2023-03-31T16:43:47;36.05;;;8.13;;
20026;SDS011;10174;42.688;23.344;2023-03-31T16:46:16;25.17;;;7.50;;
20026;SDS011;10174;42.688;23.344;2023-03-31T16:48:42;42.05;;;8.27;;
20026;SDS011;10174;42.688;23.344;2023-03-31T16:51:08;28.55;;;8.27;;
20026;SDS011;10174;42.688;23.344;2023-03-31T16:53:34;23.10;;;6.78;;
20026;SDS011;10174;42.688;23.344;2023-03-31T16:56:00;28.65;;;7.45;;
20026;SDS011;10174;42.688;23.344;2023-03-31T16:58:26;21.95;;;6.65;;
20026;SDS011;10174;42.688;23.344;2023-03-31T17:00:53;49.90;;;9.93;;
20026;SDS011;10174;42.688;23.344;2023-03-31T17:03:19;33.85;;;8.82;;
20026;SDS011;10174;42.688;23.344;2023-03-31T17:05:49;24.70;;;9.63;;
20026;SDS011;10174;42.688;23.344;2023-03-31T17:08:19;37.35;;;10.40;;
20026;SDS011;10174;42.688;23.344;2023-03-31T17:10:53;61.65;;;18.33;;
20026;SDS011;10174;42.688;23.344;2023-03-31T17:13:22;34.75;;;10.82;;
20026;SDS011;10174;42.688;23.344;2023-03-31T17:15:47;46.80;;;9.50;;
20026;SDS011;10174;42.688;23.344;2023-03-31T17:18:14;34.80;;;6.53;;
20026;SDS011;10174;42.688;23.344;2023-03-31T17:20:41;37.70;;;9.15;;
20026;SDS011;10174;42.688;23.344;2023-03-31T17:23:06;35.63;;;8.07;;
20026;SDS011;10174;42.688;23.344;2023-03-31T17:25:32;30.40;;;7.47;;
20026;SDS011;10174;42.688;23.344;2023-03-31T17:28:00;24.35;;;6.93;;
20026;SDS011;10174;42.688;23.344;2023-03-31T17:30:26;37.28;;;7.82;;
20026;SDS011;10174;42.688;23.344;2023-03-31T17:32:52;28.25;;;8.80;;
20026;SDS011;10174;42.688;23.344;2023-03-31T17:35:18;31.13;;;9.30;;
20026;SDS011;10174;42.688;23.344;2023-03-31T17:37:47;35.33;;;9.52;;
20026;SDS011;10174;42.688;23.344;2023-03-31T17:40:24;57.33;;;15.43;;
20026;SDS011;10174;42.688;23.344;2023-03-31T17:42:50;54.78;;;13.27;;
20026;SDS011;10174;42.688;23.344;2023-03-31T17:45:16;51.03;;;11.43;;